M/T Filos — 9HQB8 — position and weather

sailwx.info

Track history (hours):
 
Tides and Currents Weather Stations Pressure Air Temp Water Temp Dewpoint Dewpoint Depression Visibility Wind Speed Wind Dir Waves Ship Positions

M/T Filos

Last reported at 2014-Sep-30 09:32 UTC. Time now 2014-Sep-30 10:14 UTC.
Position N 37°57' W 008°53'.

Length 180 m; draft 7.4 m.

Type: Tanker. MMSI: 224561000.

Date/timePositionNaut miles runAvg speedWind from/ knotsBaromVisibWave heightAir tempDewpointWater temp
2014-Sep-30 09:32N 37°57' W 008°53'0 0.0
2014-Sep-30 08:32N 37°57' W 008°53'0 0.0
2014-Sep-30 07:32N 37°57' W 008°53'0 0.0
2014-Sep-30 06:32N 37°57' W 008°53'0 0.0
2014-Sep-30 05:32N 37°57' W 008°53'0 0.0
2014-Sep-30 04:29N 37°57' W 008°53'0 0.0
2014-Sep-30 03:32N 37°57' W 008°53'0 0.0
2014-Sep-30 02:32N 37°57' W 008°53'0 0.0
2014-Sep-30 01:32N 37°57' W 008°53'0 0.0
2014-Sep-30 00:32N 37°57' W 008°53'0 0.0
2014-Sep-29 23:32N 37°57' W 008°53'0 0.0
2014-Sep-29 22:29N 37°57' W 008°53'0 0.0
2014-Sep-29 21:32N 37°57' W 008°53'0 0.0
2014-Sep-29 20:32N 37°57' W 008°53'0 0.0
2014-Sep-29 19:32N 37°57' W 008°53'0 0.0
2014-Sep-29 18:32N 37°57' W 008°53'0 0.0
2014-Sep-29 17:29N 37°57' W 008°53'0 0.0
2014-Sep-29 16:32N 37°57' W 008°53'0 0.0
2014-Sep-29 15:32N 37°57' W 008°53'0 0.0
2014-Sep-29 14:32N 37°57' W 008°53'2 2.2
2014-Sep-29 13:33N 37°55' W 008°52'0 0.0
2014-Sep-29 10:32N 37°55' W 008°52'12 2.5
2014-Sep-29 05:32N 37°44' W 008°59'1211.6
2014-Sep-29 04:28N 37°34' W 009°09'54 9.1
2014-Sep-28 22:33N 36°41' W 008°54'1111.5
2014-Sep-28 21:33N 36°38' W 008°41'1211.6
2014-Sep-28 20:33N 36°34' W 008°27'35810.4
2014-Sep-27 10:04N 37°17' W 001°02'612.1
2014-Sep-27 09:33N 37°22' W 000°56'1312.8
2014-Sep-27 08:33N 37°30' W 000°44'1312.6
2014-Sep-27 07:33N 37°38' W 000°32'1211.9
2014-Sep-27 06:33N 37°47' W 000°23'1211.8
2014-Sep-27 05:33N 37°57' W 000°15'13312.0
2014-Sep-26 18:33N 39°45' E 001°24'1312.7
2014-Sep-26 17:33N 39°55' E 001°34'1312.7
2014-Sep-26 16:33N 40°06' E 001°44'1312.6
2014-Sep-26 15:33N 40°15' E 001°54'1312.4
2014-Sep-26 14:33N 40°25' E 002°04'1212.3
2014-Sep-26 13:34N 40°35' E 002°13'1212.4
2014-Sep-26 12:33N 40°45' E 002°23'1212.0
2014-Sep-26 11:33N 40°54' E 002°33'1212.3
2014-Sep-26 10:33N 41°04' E 002°43'1312.5
2014-Sep-26 09:33N 41°14' E 002°52'1312.7
2014-Sep-26 08:32N 41°25' E 003°03'1512.6
2014-Sep-26 07:19N 41°37' E 003°15'1112.9
2014-Sep-26 06:28N 41°46' E 003°24'1513.1
2014-Sep-26 05:21N 41°57' E 003°36'8912.9
2014-Sep-25 22:27N 43°05' E 004°53'1111.8
2014-Sep-25 21:33N 43°14' E 005°00'1110.9
2014-Sep-25 20:34N 43°24' E 004°53'1 0.8
2014-Sep-25 19:32N 43°25' E 004°53'0 0.0
2014-Sep-25 18:32N 43°25' E 004°53'0 0.0
2014-Sep-25 17:32N 43°25' E 004°53'0 0.0
2014-Sep-25 16:32N 43°25' E 004°53'0 0.0
2014-Sep-25 15:32N 43°25' E 004°53'0 0.0
2014-Sep-25 14:32N 43°25' E 004°53'0 0.0
2014-Sep-25 13:32N 43°25' E 004°53'0 0.0
2014-Sep-25 12:32N 43°25' E 004°53'0 0.0
2014-Sep-25 11:32N 43°25' E 004°53'0 0.0
2014-Sep-25 10:32N 43°25' E 004°53'0 0.0
2014-Sep-25 09:32N 43°25' E 004°53'0 0.0
2014-Sep-25 08:32N 43°25' E 004°53'0 0.0
2014-Sep-25 07:32N 43°25' E 004°53'0 0.0
2014-Sep-25 06:32N 43°25' E 004°53'1 0.7
2014-Sep-25 05:33N 43°24' E 004°53'3 2.7
2014-Sep-25 04:33N 43°24' E 004°57'0 0.0
2014-Sep-25 03:33N 43°24' E 004°57'0 0.0
2014-Sep-25 02:33N 43°24' E 004°57'0 0.0
2014-Sep-25 01:33N 43°24' E 004°57'0 0.0
2014-Sep-25 00:33N 43°24' E 004°57'0 0.0
2014-Sep-24 23:33N 43°24' E 004°57'3 2.8
2014-Sep-24 22:33N 43°21' E 004°59'10 9.8
2014-Sep-24 21:33N 43°12' E 005°03'2110.1
2014-Sep-24 19:28N 42°56' E 004°43'1010.9
2014-Sep-24 18:34N 42°49' E 004°34'1110.9
2014-Sep-24 17:34N 42°41' E 004°24'1111.0
2014-Sep-24 16:34N 42°32' E 004°15'1111.2
2014-Sep-24 15:33N 42°24' E 004°05'1110.9
2014-Sep-24 14:33N 42°16' E 003°55'1010.4
2014-Sep-24 13:33N 42°08' E 003°46'1110.2
2014-Sep-24 12:28N 41°60' E 003°36'9 9.7
2014-Sep-24 11:32N 41°53' E 003°28'1010.0
2014-Sep-24 10:33N 41°45' E 003°20'1010.4
2014-Sep-24 09:33N 41°36' E 003°12'1110.9
2014-Sep-24 08:31N 41°27' E 003°03'1311.8
2014-Sep-24 07:27N 41°17' E 002°53'1411.5
2014-Sep-24 06:11N 41°05' E 002°42'711.7
2014-Sep-24 05:33N 40°59' E 002°36'1211.8
2014-Sep-24 04:33N 40°50' E 002°27'1211.7
2014-Sep-24 03:33N 40°40' E 002°18'1211.9
2014-Sep-24 02:33N 40°31' E 002°09'1211.9
2014-Sep-24 01:33N 40°21' E 001°60'1211.9
2014-Sep-24 00:34N 40°11' E 001°51'1211.6
2014-Sep-23 23:33N 40°02' E 001°42'1111.5
2014-Sep-23 22:34N 39°52' E 001°33'1211.4
2014-Sep-23 21:33N 39°43' E 001°24'1211.4
2014-Sep-23 20:30N 39°33' E 001°15'13211.7
2014-Sep-23 09:15N 37°45' W 000°21'811.2
2014-Sep-23 08:32N 37°38' W 000°27'1111.4
2014-Sep-23 07:33N 37°30' W 000°36'1111.4
2014-Sep-23 06:33N 37°22' W 000°46'24012.0
2014-Sep-22 10:33N 35°58' W 005°27'  
Track history (hours):
 
Tides and Currents Weather Stations Pressure Air Temp Water Temp Dewpoint Dewpoint Depression Visibility Wind Speed Wind Dir Waves Ship Positions

M/T Filos

Last reported at 2014-Sep-30 09:32 UTC. Time now 2014-Sep-30 10:14 UTC.
Position N 37°57' W 008°53'.

Length 180 m; draft 7.4 m.

Type: Tanker. MMSI: 224561000.

Date/timePositionNaut miles runAvg speedWind from/ knotsBaromVisibWave heightAir tempDewpointWater temp
2014-Sep-30 09:32N 37°57' W 008°53'0 0.0
2014-Sep-30 08:32N 37°57' W 008°53'0 0.0
2014-Sep-30 07:32N 37°57' W 008°53'0 0.0
2014-Sep-30 06:32N 37°57' W 008°53'0 0.0
2014-Sep-30 05:32N 37°57' W 008°53'0 0.0
2014-Sep-30 04:29N 37°57' W 008°53'0 0.0
2014-Sep-30 03:32N 37°57' W 008°53'0 0.0
2014-Sep-30 02:32N 37°57' W 008°53'0 0.0
2014-Sep-30 01:32N 37°57' W 008°53'0 0.0
2014-Sep-30 00:32N 37°57' W 008°53'0 0.0
2014-Sep-29 23:32N 37°57' W 008°53'0 0.0
2014-Sep-29 22:29N 37°57' W 008°53'0 0.0
2014-Sep-29 21:32N 37°57' W 008°53'0 0.0
2014-Sep-29 20:32N 37°57' W 008°53'0 0.0
2014-Sep-29 19:32N 37°57' W 008°53'0 0.0
2014-Sep-29 18:32N 37°57' W 008°53'0 0.0
2014-Sep-29 17:29N 37°57' W 008°53'0 0.0
2014-Sep-29 16:32N 37°57' W 008°53'0 0.0
2014-Sep-29 15:32N 37°57' W 008°53'0 0.0
2014-Sep-29 14:32N 37°57' W 008°53'2 2.2
2014-Sep-29 13:33N 37°55' W 008°52'0 0.0
2014-Sep-29 10:32N 37°55' W 008°52'12 2.5
2014-Sep-29 05:32N 37°44' W 008°59'1211.6
2014-Sep-29 04:28N 37°34' W 009°09'54 9.1
2014-Sep-28 22:33N 36°41' W 008°54'1111.5
2014-Sep-28 21:33N 36°38' W 008°41'1211.6
2014-Sep-28 20:33N 36°34' W 008°27'35810.4
2014-Sep-27 10:04N 37°17' W 001°02'612.1
2014-Sep-27 09:33N 37°22' W 000°56'1312.8
2014-Sep-27 08:33N 37°30' W 000°44'1312.6
2014-Sep-27 07:33N 37°38' W 000°32'1211.9
2014-Sep-27 06:33N 37°47' W 000°23'1211.8
2014-Sep-27 05:33N 37°57' W 000°15'13312.0
2014-Sep-26 18:33N 39°45' E 001°24'1312.7
2014-Sep-26 17:33N 39°55' E 001°34'1312.7
2014-Sep-26 16:33N 40°06' E 001°44'1312.6
2014-Sep-26 15:33N 40°15' E 001°54'1312.4
2014-Sep-26 14:33N 40°25' E 002°04'1212.3
2014-Sep-26 13:34N 40°35' E 002°13'1212.4
2014-Sep-26 12:33N 40°45' E 002°23'1212.0
2014-Sep-26 11:33N 40°54' E 002°33'1212.3
2014-Sep-26 10:33N 41°04' E 002°43'1312.5
2014-Sep-26 09:33N 41°14' E 002°52'1312.7
2014-Sep-26 08:32N 41°25' E 003°03'1512.6
2014-Sep-26 07:19N 41°37' E 003°15'1112.9
2014-Sep-26 06:28N 41°46' E 003°24'1513.1
2014-Sep-26 05:21N 41°57' E 003°36'8912.9
2014-Sep-25 22:27N 43°05' E 004°53'1111.8
2014-Sep-25 21:33N 43°14' E 005°00'1110.9
2014-Sep-25 20:34N 43°24' E 004°53'1 0.8
2014-Sep-25 19:32N 43°25' E 004°53'0 0.0
2014-Sep-25 18:32N 43°25' E 004°53'0 0.0
2014-Sep-25 17:32N 43°25' E 004°53'0 0.0
2014-Sep-25 16:32N 43°25' E 004°53'0 0.0
2014-Sep-25 15:32N 43°25' E 004°53'0 0.0
2014-Sep-25 14:32N 43°25' E 004°53'0 0.0
2014-Sep-25 13:32N 43°25' E 004°53'0 0.0
2014-Sep-25 12:32N 43°25' E 004°53'0 0.0
2014-Sep-25 11:32N 43°25' E 004°53'0 0.0
2014-Sep-25 10:32N 43°25' E 004°53'0 0.0
2014-Sep-25 09:32N 43°25' E 004°53'0 0.0
2014-Sep-25 08:32N 43°25' E 004°53'0 0.0
2014-Sep-25 07:32N 43°25' E 004°53'0 0.0
2014-Sep-25 06:32N 43°25' E 004°53'1 0.7
2014-Sep-25 05:33N 43°24' E 004°53'3 2.7
2014-Sep-25 04:33N 43°24' E 004°57'0 0.0
2014-Sep-25 03:33N 43°24' E 004°57'0 0.0
2014-Sep-25 02:33N 43°24' E 004°57'0 0.0
2014-Sep-25 01:33N 43°24' E 004°57'0 0.0
2014-Sep-25 00:33N 43°24' E 004°57'0 0.0
2014-Sep-24 23:33N 43°24' E 004°57'3 2.8
2014-Sep-24 22:33N 43°21' E 004°59'10 9.8
2014-Sep-24 21:33N 43°12' E 005°03'2110.1
2014-Sep-24 19:28N 42°56' E 004°43'1010.9
2014-Sep-24 18:34N 42°49' E 004°34'1110.9
2014-Sep-24 17:34N 42°41' E 004°24'1111.0
2014-Sep-24 16:34N 42°32' E 004°15'1111.2
2014-Sep-24 15:33N 42°24' E 004°05'1110.9
2014-Sep-24 14:33N 42°16' E 003°55'1010.4
2014-Sep-24 13:33N 42°08' E 003°46'1110.2
2014-Sep-24 12:28N 41°60' E 003°36'9 9.7
2014-Sep-24 11:32N 41°53' E 003°28'1010.0
2014-Sep-24 10:33N 41°45' E 003°20'1010.4
2014-Sep-24 09:33N 41°36' E 003°12'1110.9
2014-Sep-24 08:31N 41°27' E 003°03'1311.8
2014-Sep-24 07:27N 41°17' E 002°53'1411.5
2014-Sep-24 06:11N 41°05' E 002°42'711.7
2014-Sep-24 05:33N 40°59' E 002°36'1211.8
2014-Sep-24 04:33N 40°50' E 002°27'1211.7
2014-Sep-24 03:33N 40°40' E 002°18'1211.9
2014-Sep-24 02:33N 40°31' E 002°09'1211.9
2014-Sep-24 01:33N 40°21' E 001°60'1211.9
2014-Sep-24 00:34N 40°11' E 001°51'1211.6
2014-Sep-23 23:33N 40°02' E 001°42'1111.5
2014-Sep-23 22:34N 39°52' E 001°33'1211.4
2014-Sep-23 21:33N 39°43' E 001°24'1211.4
2014-Sep-23 20:30N 39°33' E 001°15'13211.7
2014-Sep-23 09:15N 37°45' W 000°21'811.2
2014-Sep-23 08:32N 37°38' W 000°27'1111.4
2014-Sep-23 07:33N 37°30' W 000°36'1111.4
2014-Sep-23 06:33N 37°22' W 000°46'24012.0
2014-Sep-22 10:33N 35°58' W 005°27'  

Dump ship's entire track history